createdAt,value
2018-06-24T12:01:50.661Z,100630.00
2018-06-24T12:06:55.061Z,100630.00
2018-06-24T12:11:59.800Z,100623.00
2018-06-24T12:17:04.264Z,100624.00
2018-06-24T12:22:09.045Z,100623.00
2018-06-24T12:27:13.370Z,100618.00
2018-06-24T12:32:17.729Z,100614.00
2018-06-24T12:37:22.324Z,100608.00
2018-06-24T12:42:26.914Z,100612.00
2018-06-24T12:47:31.869Z,100601.00
2018-06-24T12:52:36.097Z,100594.00
2018-06-24T12:57:40.554Z,100596.00
2018-06-24T13:02:44.901Z,100597.00
2018-06-24T13:07:49.174Z,100602.00
2018-06-24T13:12:53.694Z,100605.00
2018-06-24T13:17:58.130Z,100609.00
2018-06-24T13:23:02.486Z,100607.00
2018-06-24T13:28:07.033Z,100598.00
2018-06-24T13:33:11.784Z,100593.00
2018-06-24T13:38:16.289Z,100589.00
2018-06-24T13:43:21.253Z,100587.00
2018-06-24T13:48:25.592Z,100583.00
2018-06-24T13:53:29.893Z,100582.00
2018-06-24T13:58:34.249Z,100580.00
2018-06-24T14:03:38.520Z,100576.00
2018-06-24T14:08:43.010Z,100583.00
2018-06-24T14:13:47.381Z,100589.00
2018-06-24T14:18:51.022Z,100594.00
2018-06-24T14:23:54.666Z,100600.00
2018-06-24T14:28:58.650Z,100600.00
2018-06-24T14:34:02.310Z,100598.00
2018-06-24T14:39:09.399Z,100591.00
2018-06-24T14:44:13.049Z,100590.00
2018-06-24T14:49:16.869Z,100589.00
2018-06-24T14:54:20.338Z,100588.00
2018-06-24T14:59:23.729Z,100587.00
2018-06-24T15:04:27.125Z,100583.00
2018-06-24T15:09:30.624Z,100576.00
2018-06-24T15:14:33.985Z,100573.00
2018-06-24T15:19:37.396Z,100570.00
2018-06-24T15:24:41.378Z,100576.00
2018-06-24T15:29:45.749Z,100576.00
2018-06-24T15:34:49.518Z,100574.00
2018-06-24T15:39:52.948Z,100572.00
2018-06-24T15:44:56.630Z,100575.00
2018-06-24T15:50:04.846Z,100574.00
2018-06-24T15:55:08.594Z,100577.00
2018-06-24T16:00:12.286Z,100574.00
2018-06-24T16:05:15.946Z,100576.00
2018-06-24T16:10:20.244Z,100572.00
2018-06-24T16:15:23.798Z,100572.00
2018-06-24T16:20:27.615Z,100566.00
2018-06-24T16:25:31.232Z,100568.00
2018-06-24T16:30:34.714Z,100568.00
2018-06-24T16:35:38.198Z,100564.00
2018-06-24T16:40:41.633Z,100559.00
2018-06-24T16:45:45.178Z,100559.00
2018-06-24T16:50:48.813Z,100561.00
2018-06-24T16:55:52.663Z,100565.00
2018-06-24T17:00:56.971Z,100559.00
2018-06-24T17:06:00.643Z,100556.00
2018-06-24T17:11:04.410Z,100552.00
2018-06-24T17:16:07.878Z,100550.00
2018-06-24T17:21:11.349Z,100551.00
2018-06-24T17:26:14.933Z,100547.00
2018-06-24T17:31:18.694Z,100549.00
2018-06-24T17:36:22.475Z,100536.00
2018-06-24T17:41:26.294Z,100533.00
2018-06-24T17:46:29.784Z,100536.00
2018-06-24T17:51:33.556Z,100530.00
2018-06-24T17:56:36.961Z,100535.00
2018-06-24T18:01:40.441Z,100529.00
2018-06-24T18:06:44.144Z,100527.00
2018-06-24T18:11:47.817Z,100526.00
2018-06-24T18:16:51.434Z,100528.00
2018-06-24T18:21:54.859Z,100518.00
2018-06-24T18:26:58.451Z,100512.00
2018-06-24T18:32:01.861Z,100511.00
2018-06-24T18:37:05.499Z,100510.00
2018-06-24T18:42:09.168Z,100509.00
2018-06-24T18:47:12.608Z,100507.00
2018-06-24T18:52:16.027Z,100514.00
2018-06-24T18:57:19.636Z,100518.00
2018-06-24T19:02:23.366Z,100522.00
2018-06-24T19:07:26.894Z,100527.00
2018-06-24T19:12:30.352Z,100531.00
2018-06-24T19:17:34.338Z,100529.00
2018-06-24T19:22:37.842Z,100538.00
2018-06-24T19:27:41.881Z,100543.00
2018-06-24T19:32:45.578Z,100541.00
2018-06-24T19:37:48.990Z,100545.00
2018-06-24T19:42:52.774Z,100547.00
2018-06-24T19:47:56.310Z,100551.00
2018-06-24T19:52:59.834Z,100553.00
2018-06-24T19:58:03.213Z,100563.00
2018-06-24T20:03:07.114Z,100568.00
2018-06-24T20:08:10.585Z,100568.00
2018-06-24T20:13:14.029Z,100565.00
2018-06-24T20:18:18.428Z,100570.00
2018-06-24T20:23:21.879Z,100562.00
2018-06-24T20:28:25.357Z,100563.00
2018-06-24T20:33:28.972Z,100567.00
2018-06-24T20:38:32.539Z,100560.00
2018-06-24T20:43:36.046Z,100556.00
2018-06-24T20:48:40.170Z,100556.00
2018-06-24T20:53:43.950Z,100552.00
2018-06-24T20:58:47.485Z,100545.00
2018-06-24T21:03:50.899Z,100556.00
2018-06-24T21:08:54.559Z,100558.00
2018-06-24T21:13:58.023Z,100556.00
2018-06-24T21:19:01.496Z,100559.00
2018-06-24T21:24:04.913Z,100561.00
2018-06-24T21:29:08.637Z,100560.00
2018-06-24T21:34:12.166Z,100562.00
2018-06-24T21:39:15.761Z,100563.00
2018-06-24T21:44:19.281Z,100563.00
2018-06-24T21:49:23.333Z,100563.00
2018-06-24T21:54:26.721Z,100557.00
2018-06-24T21:59:30.189Z,100556.00
2018-06-24T22:04:33.683Z,100553.00
2018-06-24T22:09:37.341Z,100554.00
2018-06-24T22:14:40.854Z,100554.00
2018-06-24T22:19:44.285Z,100546.00
2018-06-24T22:24:47.797Z,100544.00
2018-06-24T22:29:51.289Z,100547.00
2018-06-24T22:34:54.982Z,100544.00
2018-06-24T22:39:58.399Z,100548.00
2018-06-24T22:45:01.819Z,100555.00
2018-06-24T22:50:05.601Z,100549.00
2018-06-24T22:55:09.158Z,100553.00
2018-06-24T23:00:14.704Z,100556.00
2018-06-24T23:05:18.314Z,100550.00
2018-06-24T23:10:21.715Z,100545.00
2018-06-24T23:15:25.190Z,100545.00
2018-06-24T23:20:28.613Z,100542.00
2018-06-24T23:25:32.265Z,100540.00
2018-06-24T23:30:35.728Z,100536.00
2018-06-24T23:35:39.207Z,100542.00
2018-06-24T23:40:42.598Z,100535.00
2018-06-24T23:45:46.036Z,100528.00
2018-06-24T23:50:49.861Z,100530.00
2018-06-24T23:55:53.312Z,100522.00
